sensor_id;sensor_type;location;lat;lon;timestamp;P1;durP1;ratioP1;P2;durP2;ratioP2
46447;SDS011;32145;50.390;30.778;2023-05-23T00:02:47;9.65;;;5.07;;
46447;SDS011;32145;50.390;30.778;2023-05-23T00:05:41;7.07;;;4.60;;
46447;SDS011;32145;50.390;30.778;2023-05-23T00:08:36;8.63;;;5.00;;
46447;SDS011;32145;50.390;30.778;2023-05-23T00:11:31;8.63;;;4.60;;
46447;SDS011;32145;50.390;30.778;2023-05-23T00:14:26;6.82;;;4.35;;
46447;SDS011;32145;50.390;30.778;2023-05-23T00:17:20;8.73;;;5.05;;
46447;SDS011;32145;50.390;30.778;2023-05-23T00:20:14;8.73;;;4.75;;
46447;SDS011;32145;50.390;30.778;2023-05-23T00:23:09;6.85;;;4.72;;
46447;SDS011;32145;50.390;30.778;2023-05-23T00:26:04;7.22;;;4.28;;
46447;SDS011;32145;50.390;30.778;2023-05-23T00:29:00;7.47;;;4.57;;
46447;SDS011;32145;50.390;30.778;2023-05-23T00:31:54;6.78;;;4.35;;
46447;SDS011;32145;50.390;30.778;2023-05-23T00:34:48;6.20;;;4.50;;
46447;SDS011;32145;50.390;30.778;2023-05-23T00:37:42;7.63;;;4.70;;
46447;SDS011;32145;50.390;30.778;2023-05-23T00:40:37;8.32;;;4.53;;
46447;SDS011;32145;50.390;30.778;2023-05-23T00:43:31;6.97;;;4.25;;
46447;SDS011;32145;50.390;30.778;2023-05-23T00:46:27;6.60;;;4.22;;
46447;SDS011;32145;50.390;30.778;2023-05-23T00:49:22;9.80;;;4.65;;
46447;SDS011;32145;50.390;30.778;2023-05-23T00:52:18;6.60;;;4.38;;
46447;SDS011;32145;50.390;30.778;2023-05-23T00:55:15;7.28;;;4.72;;
46447;SDS011;32145;50.390;30.778;2023-05-23T00:58:11;7.00;;;4.40;;
46447;SDS011;32145;50.390;30.778;2023-05-23T01:01:08;6.78;;;4.20;;
46447;SDS011;32145;50.390;30.778;2023-05-23T01:04:06;8.23;;;4.10;;
46447;SDS011;32145;50.390;30.778;2023-05-23T01:07:02;7.00;;;4.22;;
46447;SDS011;32145;50.390;30.778;2023-05-23T01:09:58;7.70;;;4.50;;
46447;SDS011;32145;50.390;30.778;2023-05-23T01:13:01;7.65;;;4.32;;
46447;SDS011;32145;50.390;30.778;2023-05-23T01:16:03;6.63;;;4.28;;
46447;SDS011;32145;50.390;30.778;2023-05-23T01:19:06;9.35;;;4.65;;
46447;SDS011;32145;50.390;30.778;2023-05-23T01:22:17;8.00;;;4.18;;
46447;SDS011;32145;50.390;30.778;2023-05-23T01:25:22;7.07;;;4.25;;
46447;SDS011;32145;50.390;30.778;2023-05-23T01:28:28;7.55;;;4.30;;
46447;SDS011;32145;50.390;30.778;2023-05-23T01:31:25;6.77;;;4.10;;
46447;SDS011;32145;50.390;30.778;2023-05-23T01:34:22;6.35;;;4.13;;
46447;SDS011;32145;50.390;30.778;2023-05-23T01:37:16;6.40;;;4.20;;
46447;SDS011;32145;50.390;30.778;2023-05-23T01:40:11;6.55;;;4.10;;
46447;SDS011;32145;50.390;30.778;2023-05-23T01:43:05;6.95;;;4.28;;
46447;SDS011;32145;50.390;30.778;2023-05-23T01:46:01;7.68;;;4.80;;
46447;SDS011;32145;50.390;30.778;2023-05-23T01:48:57;7.97;;;4.75;;
46447;SDS011;32145;50.390;30.778;2023-05-23T01:51:53;7.30;;;4.60;;
46447;SDS011;32145;50.390;30.778;2023-05-23T01:54:47;7.32;;;4.53;;
46447;SDS011;32145;50.390;30.778;2023-05-23T01:57:43;8.18;;;4.95;;
46447;SDS011;32145;50.390;30.778;2023-05-23T02:00:40;7.00;;;4.32;;
46447;SDS011;32145;50.390;30.778;2023-05-23T02:03:36;8.32;;;5.03;;
46447;SDS011;32145;50.390;30.778;2023-05-23T02:06:32;8.68;;;4.80;;
46447;SDS011;32145;50.390;30.778;2023-05-23T02:09:29;6.32;;;4.55;;
46447;SDS011;32145;50.390;30.778;2023-05-23T02:12:25;6.80;;;4.57;;
46447;SDS011;32145;50.390;30.778;2023-05-23T02:15:21;7.10;;;4.70;;
46447;SDS011;32145;50.390;30.778;2023-05-23T02:18:12;8.52;;;4.65;;
46447;SDS011;32145;50.390;30.778;2023-05-23T02:21:07;8.07;;;4.32;;
46447;SDS011;32145;50.390;30.778;2023-05-23T02:24:02;7.57;;;4.63;;
46447;SDS011;32145;50.390;30.778;2023-05-23T02:26:56;8.10;;;4.50;;
46447;SDS011;32145;50.390;30.778;2023-05-23T02:29:50;6.07;;;4.03;;
46447;SDS011;32145;50.390;30.778;2023-05-23T02:32:45;7.32;;;4.47;;
46447;SDS011;32145;50.390;30.778;2023-05-23T02:35:39;7.75;;;4.82;;
46447;SDS011;32145;50.390;30.778;2023-05-23T02:38:35;6.88;;;4.47;;
46447;SDS011;32145;50.390;30.778;2023-05-23T02:41:29;6.95;;;4.57;;
46447;SDS011;32145;50.390;30.778;2023-05-23T02:44:23;6.70;;;4.78;;
46447;SDS011;32145;50.390;30.778;2023-05-23T02:47:18;7.50;;;4.57;;
46447;SDS011;32145;50.390;30.778;2023-05-23T02:50:12;6.03;;;4.10;;
46447;SDS011;32145;50.390;30.778;2023-05-23T02:53:06;6.15;;;4.25;;
46447;SDS011;32145;50.390;30.778;2023-05-23T02:56:04;6.22;;;4.43;;
46447;SDS011;32145;50.390;30.778;2023-05-23T02:59:01;7.55;;;4.25;;
46447;SDS011;32145;50.390;30.778;2023-05-23T03:01:57;7.85;;;4.60;;
46447;SDS011;32145;50.390;30.778;2023-05-23T03:04:53;7.43;;;4.55;;
46447;SDS011;32145;50.390;30.778;2023-05-23T03:07:50;7.75;;;4.60;;
46447;SDS011;32145;50.390;30.778;2023-05-23T03:10:46;6.55;;;4.30;;
46447;SDS011;32145;50.390;30.778;2023-05-23T03:13:44;9.20;;;4.25;;
46447;SDS011;32145;50.390;30.778;2023-05-23T03:16:40;7.38;;;4.30;;
46447;SDS011;32145;50.390;30.778;2023-05-23T03:19:36;8.10;;;4.35;;
46447;SDS011;32145;50.390;30.778;2023-05-23T03:22:33;6.25;;;4.10;;
46447;SDS011;32145;50.390;30.778;2023-05-23T03:25:29;7.75;;;4.20;;
46447;SDS011;32145;50.390;30.778;2023-05-23T03:28:25;5.90;;;4.10;;
46447;SDS011;32145;50.390;30.778;2023-05-23T03:31:23;7.28;;;3.80;;
46447;SDS011;32145;50.390;30.778;2023-05-23T03:34:19;5.80;;;3.65;;
46447;SDS011;32145;50.390;30.778;2023-05-23T03:37:10;5.93;;;3.85;;
46447;SDS011;32145;50.390;30.778;2023-05-23T03:40:05;7.07;;;3.83;;
46447;SDS011;32145;50.390;30.778;2023-05-23T03:43:03;5.82;;;3.75;;
46447;SDS011;32145;50.390;30.778;2023-05-23T03:45:58;6.78;;;3.97;;
46447;SDS011;32145;50.390;30.778;2023-05-23T03:48:53;7.63;;;5.00;;
46447;SDS011;32145;50.390;30.778;2023-05-23T03:51:48;8.02;;;4.97;;
46447;SDS011;32145;50.390;30.778;2023-05-23T03:54:44;6.45;;;4.32;;
46447;SDS011;32145;50.390;30.778;2023-05-23T03:57:40;7.22;;;4.22;;
46447;SDS011;32145;50.390;30.778;2023-05-23T04:00:35;8.68;;;4.40;;
46447;SDS011;32145;50.390;30.778;2023-05-23T04:03:29;6.03;;;3.88;;
46447;SDS011;32145;50.390;30.778;2023-05-23T04:06:24;7.38;;;4.10;;
46447;SDS011;32145;50.390;30.778;2023-05-23T04:09:13;6.80;;;3.78;;
46447;SDS011;32145;50.390;30.778;2023-05-23T04:12:09;6.43;;;3.85;;
46447;SDS011;32145;50.390;30.778;2023-05-23T04:15:06;6.63;;;3.80;;
46447;SDS011;32145;50.390;30.778;2023-05-23T04:18:03;7.18;;;3.55;;
46447;SDS011;32145;50.390;30.778;2023-05-23T04:21:00;6.35;;;3.60;;
46447;SDS011;32145;50.390;30.778;2023-05-23T04:23:56;7.00;;;3.88;;
46447;SDS011;32145;50.390;30.778;2023-05-23T04:26:50;7.68;;;3.80;;
46447;SDS011;32145;50.390;30.778;2023-05-23T04:29:44;9.18;;;4.05;;
46447;SDS011;32145;50.390;30.778;2023-05-23T04:32:33;6.25;;;4.28;;
46447;SDS011;32145;50.390;30.778;2023-05-23T04:35:29;7.35;;;4.30;;
46447;SDS011;32145;50.390;30.778;2023-05-23T04:38:26;8.27;;;4.75;;
46447;SDS011;32145;50.390;30.778;2023-05-23T04:41:23;6.95;;;4.47;;
46447;SDS011;32145;50.390;30.778;2023-05-23T04:44:19;5.93;;;4.05;;
46447;SDS011;32145;50.390;30.778;2023-05-23T04:47:16;6.97;;;4.50;;
46447;SDS011;32145;50.390;30.778;2023-05-23T04:50:12;6.82;;;4.35;;
46447;SDS011;32145;50.390;30.778;2023-05-23T04:53:09;6.75;;;4.03;;
46447;SDS011;32145;50.390;30.778;2023-05-23T04:56:06;8.88;;;4.28;;
46447;SDS011;32145;50.390;30.778;2023-05-23T04:59:02;9.10;;;4.90;;
46447;SDS011;32145;50.390;30.778;2023-05-23T05:01:56;8.15;;;4.88;;
46447;SDS011;32145;50.390;30.778;2023-05-23T05:04:51;9.07;;;4.95;;
46447;SDS011;32145;50.390;30.778;2023-05-23T05:07:45;10.38;;;5.40;;
46447;SDS011;32145;50.390;30.778;2023-05-23T05:10:39;8.65;;;4.82;;
46447;SDS011;32145;50.390;30.778;2023-05-23T05:13:35;9.18;;;5.25;;
46447;SDS011;32145;50.390;30.778;2023-05-23T05:16:33;7.20;;;5.10;;
46447;SDS011;32145;50.390;30.778;2023-05-23T05:19:27;7.20;;;4.82;;
46447;SDS011;32145;50.390;30.778;2023-05-23T05:22:22;7.53;;;5.00;;
46447;SDS011;32145;50.390;30.778;2023-05-23T05:25:16;9.45;;;5.40;;
46447;SDS011;32145;50.390;30.778;2023-05-23T05:28:10;10.30;;;5.55;;
46447;SDS011;32145;50.390;30.778;2023-05-23T05:31:07;7.53;;;4.90;;
46447;SDS011;32145;50.390;30.778;2023-05-23T05:34:04;11.07;;;5.80;;
46447;SDS011;32145;50.390;30.778;2023-05-23T05:37:00;9.23;;;6.50;;
46447;SDS011;32145;50.390;30.778;2023-05-23T05:39:57;12.95;;;6.78;;
46447;SDS011;32145;50.390;30.778;2023-05-23T05:42:53;12.95;;;6.45;;
46447;SDS011;32145;50.390;30.778;2023-05-23T05:45:50;9.80;;;5.50;;
46447;SDS011;32145;50.390;30.778;2023-05-23T05:48:46;8.68;;;5.97;;
46447;SDS011;32145;50.390;30.778;2023-05-23T05:51:44;11.18;;;5.70;;
46447;SDS011;32145;50.390;30.778;2023-05-23T05:54:40;9.65;;;5.40;;
46447;SDS011;32145;50.390;30.778;2023-05-23T05:57:36;8.60;;;5.45;;
46447;SDS011;32145;50.390;30.778;2023-05-23T06:00:33;12.40;;;5.90;;
46447;SDS011;32145;50.390;30.778;2023-05-23T06:03:29;8.13;;;5.03;;
46447;SDS011;32145;50.390;30.778;2023-05-23T06:06:25;8.55;;;5.32;;
46447;SDS011;32145;50.390;30.778;2023-05-23T06:09:23;10.48;;;5.63;;
46447;SDS011;32145;50.390;30.778;2023-05-23T06:12:19;8.57;;;5.10;;
46447;SDS011;32145;50.390;30.778;2023-05-23T06:15:16;8.85;;;4.85;;
46447;SDS011;32145;50.390;30.778;2023-05-23T06:18:12;7.82;;;4.05;;
46447;SDS011;32145;50.390;30.778;2023-05-23T06:21:08;7.72;;;4.05;;
46447;SDS011;32145;50.390;30.778;2023-05-23T06:24:05;7.68;;;4.28;;
46447;SDS011;32145;50.390;30.778;2023-05-23T06:27:02;6.70;;;3.92;;
46447;SDS011;32145;50.390;30.778;2023-05-23T06:29:59;6.97;;;3.70;;
46447;SDS011;32145;50.390;30.778;2023-05-23T06:32:55;8.15;;;3.97;;
46447;SDS011;32145;50.390;30.778;2023-05-23T06:35:45;7.65;;;3.17;;
46447;SDS011;32145;50.390;30.778;2023-05-23T06:38:40;6.78;;;3.17;;
46447;SDS011;32145;50.390;30.778;2023-05-23T06:41:34;5.97;;;3.22;;
46447;SDS011;32145;50.390;30.778;2023-05-23T06:44:30;6.45;;;3.03;;
46447;SDS011;32145;50.390;30.778;2023-05-23T06:47:18;7.88;;;2.85;;
46447;SDS011;32145;50.390;30.778;2023-05-23T06:50:14;5.60;;;2.55;;
46447;SDS011;32145;50.390;30.778;2023-05-23T06:53:11;5.05;;;2.53;;
46447;SDS011;32145;50.390;30.778;2023-05-23T06:56:08;4.32;;;2.08;;
46447;SDS011;32145;50.390;30.778;2023-05-23T06:59:04;5.43;;;2.60;;
46447;SDS011;32145;50.390;30.778;2023-05-23T07:02:00;5.95;;;3.10;;
46447;SDS011;32145;50.390;30.778;2023-05-23T07:04:54;6.93;;;2.90;;
46447;SDS011;32145;50.390;30.778;2023-05-23T07:07:48;5.35;;;2.38;;
46447;SDS011;32145;50.390;30.778;2023-05-23T07:10:43;6.32;;;3.05;;
46447;SDS011;32145;50.390;30.778;2023-05-23T07:13:39;5.38;;;3.05;;
46447;SDS011;32145;50.390;30.778;2023-05-23T07:16:35;6.53;;;3.63;;
46447;SDS011;32145;50.390;30.778;2023-05-23T07:19:33;5.93;;;3.20;;
46447;SDS011;32145;50.390;30.778;2023-05-23T07:22:29;7.85;;;3.33;;
46447;SDS011;32145;50.390;30.778;2023-05-23T07:25:25;5.40;;;2.80;;
46447;SDS011;32145;50.390;30.778;2023-05-23T07:28:20;6.50;;;3.30;;
46447;SDS011;32145;50.390;30.778;2023-05-23T07:31:14;5.00;;;2.95;;
46447;SDS011;32145;50.390;30.778;2023-05-23T07:34:09;6.70;;;3.40;;
46447;SDS011;32145;50.390;30.778;2023-05-23T07:37:05;6.38;;;3.70;;
46447;SDS011;32145;50.390;30.778;2023-05-23T07:40:01;6.18;;;3.35;;
46447;SDS011;32145;50.390;30.778;2023-05-23T07:43:01;7.55;;;3.03;;
46447;SDS011;32145;50.390;30.778;2023-05-23T07:45:55;6.03;;;3.60;;
46447;SDS011;32145;50.390;30.778;2023-05-23T07:48:49;5.43;;;2.90;;
46447;SDS011;32145;50.390;30.778;2023-05-23T07:51:44;6.85;;;2.92;;
46447;SDS011;32145;50.390;30.778;2023-05-23T07:54:41;7.65;;;2.72;;
46447;SDS011;32145;50.390;30.778;2023-05-23T07:57:37;6.88;;;2.42;;
46447;SDS011;32145;50.390;30.778;2023-05-23T08:00:34;4.78;;;2.40;;
46447;SDS011;32145;50.390;30.778;2023-05-23T08:03:30;5.07;;;2.28;;
46447;SDS011;32145;50.390;30.778;2023-05-23T08:06:26;3.30;;;2.10;;
46447;SDS011;32145;50.390;30.778;2023-05-23T08:09:21;5.40;;;2.33;;
46447;SDS011;32145;50.390;30.778;2023-05-23T08:12:17;8.18;;;2.60;;
46447;SDS011;32145;50.390;30.778;2023-05-23T08:15:11;4.38;;;2.53;;
46447;SDS011;32145;50.390;30.778;2023-05-23T08:18:05;5.15;;;2.45;;
46447;SDS011;32145;50.390;30.778;2023-05-23T08:21:00;4.97;;;2.58;;
46447;SDS011;32145;50.390;30.778;2023-05-23T08:23:54;3.72;;;2.20;;
46447;SDS011;32145;50.390;30.778;2023-05-23T08:26:45;6.30;;;2.15;;
46447;SDS011;32145;50.390;30.778;2023-05-23T08:29:40;7.68;;;2.00;;
46447;SDS011;32145;50.390;30.778;2023-05-23T08:32:35;4.68;;;1.80;;
46447;SDS011;32145;50.390;30.778;2023-05-23T08:35:29;4.30;;;1.70;;
46447;SDS011;32145;50.390;30.778;2023-05-23T08:38:17;6.45;;;2.35;;
46447;SDS011;32145;50.390;30.778;2023-05-23T08:41:15;5.75;;;1.85;;
46447;SDS011;32145;50.390;30.778;2023-05-23T08:44:14;3.65;;;1.95;;
46447;SDS011;32145;50.390;30.778;2023-05-23T08:47:11;4.07;;;1.98;;
46447;SDS011;32145;50.390;30.778;2023-05-23T08:50:11;6.55;;;1.90;;
46447;SDS011;32145;50.390;30.778;2023-05-23T08:53:08;6.43;;;2.20;;
46447;SDS011;32145;50.390;30.778;2023-05-23T08:56:04;4.65;;;2.13;;
46447;SDS011;32145;50.390;30.778;2023-05-23T08:59:01;4.50;;;1.98;;
46447;SDS011;32145;50.390;30.778;2023-05-23T09:01:58;5.43;;;1.98;;
46447;SDS011;32145;50.390;30.778;2023-05-23T09:04:56;5.32;;;1.90;;
46447;SDS011;32145;50.390;30.778;2023-05-23T09:07:53;5.50;;;1.60;;
46447;SDS011;32145;50.390;30.778;2023-05-23T09:10:49;3.70;;;1.85;;
46447;SDS011;32145;50.390;30.778;2023-05-23T09:13:46;4.38;;;1.80;;
46447;SDS011;32145;50.390;30.778;2023-05-23T09:16:44;5.70;;;1.90;;
46447;SDS011;32145;50.390;30.778;2023-05-23T09:19:39;4.72;;;1.80;;
46447;SDS011;32145;50.390;30.778;2023-05-23T09:22:35;5.25;;;2.17;;
46447;SDS011;32145;50.390;30.778;2023-05-23T09:25:29;4.55;;;2.28;;
46447;SDS011;32145;50.390;30.778;2023-05-23T09:28:23;3.78;;;1.75;;
46447;SDS011;32145;50.390;30.778;2023-05-23T09:31:18;3.47;;;1.88;;
46447;SDS011;32145;50.390;30.778;2023-05-23T09:34:12;6.57;;;1.92;;
46447;SDS011;32145;50.390;30.778;2023-05-23T09:37:06;4.93;;;2.08;;
46447;SDS011;32145;50.390;30.778;2023-05-23T09:40:04;6.13;;;2.03;;
46447;SDS011;32145;50.390;30.778;2023-05-23T09:43:01;5.30;;;1.90;;
46447;SDS011;32145;50.390;30.778;2023-05-23T09:45:59;6.63;;;2.13;;
46447;SDS011;32145;50.390;30.778;2023-05-23T09:48:56;6.30;;;1.90;;
46447;SDS011;32145;50.390;30.778;2023-05-23T09:51:40;7.55;;;2.05;;
46447;SDS011;32145;50.390;30.778;2023-05-23T09:54:35;4.80;;;1.95;;
46447;SDS011;32145;50.390;30.778;2023-05-23T09:57:21;5.43;;;2.13;;
46447;SDS011;32145;50.390;30.778;2023-05-23T10:00:07;7.90;;;1.95;;
46447;SDS011;32145;50.390;30.778;2023-05-23T10:03:08;5.50;;;1.90;;
46447;SDS011;32145;50.390;30.778;2023-05-23T10:05:55;3.83;;;2.25;;
46447;SDS011;32145;50.390;30.778;2023-05-23T10:08:53;3.97;;;1.90;;
46447;SDS011;32145;50.390;30.778;2023-05-23T10:15:10;5.75;;;2.10;;
46447;SDS011;32145;50.390;30.778;2023-05-23T10:18:02;6.90;;;2.08;;
46447;SDS011;32145;50.390;30.778;2023-05-23T10:21:01;4.63;;;1.95;;
46447;SDS011;32145;50.390;30.778;2023-05-23T10:26:54;6.35;;;2.22;;
46447;SDS011;32145;50.390;30.778;2023-05-23T10:29:48;5.10;;;2.10;;
46447;SDS011;32145;50.390;30.778;2023-05-23T10:32:34;7.68;;;2.58;;
46447;SDS011;32145;50.390;30.778;2023-05-23T10:35:38;4.95;;;2.30;;
46447;SDS011;32145;50.390;30.778;2023-05-23T10:38:30;6.38;;;2.17;;
46447;SDS011;32145;50.390;30.778;2023-05-23T10:41:35;4.90;;;2.20;;
46447;SDS011;32145;50.390;30.778;2023-05-23T10:44:35;4.35;;;1.90;;
46447;SDS011;32145;50.390;30.778;2023-05-23T10:47:30;4.78;;;2.45;;
46447;SDS011;32145;50.390;30.778;2023-05-23T10:50:15;7.78;;;2.20;;
46447;SDS011;32145;50.390;30.778;2023-05-23T10:53:25;5.68;;;2.22;;
46447;SDS011;32145;50.390;30.778;2023-05-23T10:56:24;4.00;;;2.30;;
46447;SDS011;32145;50.390;30.778;2023-05-23T10:59:20;6.25;;;2.63;;
46447;SDS011;32145;50.390;30.778;2023-05-23T11:02:05;5.55;;;2.25;;
46447;SDS011;32145;50.390;30.778;2023-05-23T11:05:21;4.15;;;2.17;;
46447;SDS011;32145;50.390;30.778;2023-05-23T11:08:19;4.82;;;2.30;;
46447;SDS011;32145;50.390;30.778;2023-05-23T11:11:15;6.80;;;2.35;;
46447;SDS011;32145;50.390;30.778;2023-05-23T11:14:05;4.70;;;2.33;;
46447;SDS011;32145;50.390;30.778;2023-05-23T11:17:00;8.50;;;2.20;;
46447;SDS011;32145;50.390;30.778;2023-05-23T11:19:58;3.60;;;2.38;;
46447;SDS011;32145;50.390;30.778;2023-05-23T11:22:53;5.43;;;2.30;;
46447;SDS011;32145;50.390;30.778;2023-05-23T11:25:53;3.70;;;1.90;;
46447;SDS011;32145;50.390;30.778;2023-05-23T11:31:48;5.85;;;2.00;;
46447;SDS011;32145;50.390;30.778;2023-05-23T11:34:32;3.78;;;1.85;;
46447;SDS011;32145;50.390;30.778;2023-05-23T11:37:17;3.33;;;1.92;;
46447;SDS011;32145;50.390;30.778;2023-05-23T11:43:23;5.50;;;1.83;;
46447;SDS011;32145;50.390;30.778;2023-05-23T11:46:17;4.53;;;1.80;;
46447;SDS011;32145;50.390;30.778;2023-05-23T11:49:01;4.22;;;1.95;;
46447;SDS011;32145;50.390;30.778;2023-05-23T11:51:57;5.10;;;1.70;;
46447;SDS011;32145;50.390;30.778;2023-05-23T11:54:42;4.40;;;2.13;;
46447;SDS011;32145;50.390;30.778;2023-05-23T11:57:38;5.75;;;1.92;;
46447;SDS011;32145;50.390;30.778;2023-05-23T12:00:21;4.50;;;1.98;;
46447;SDS011;32145;50.390;30.778;2023-05-23T12:03:12;5.63;;;2.10;;
46447;SDS011;32145;50.390;30.778;2023-05-23T12:05:56;4.55;;;1.90;;
46447;SDS011;32145;50.390;30.778;2023-05-23T12:08:53;6.10;;;1.55;;
46447;SDS011;32145;50.390;30.778;2023-05-23T12:11:37;4.32;;;1.73;;
46447;SDS011;32145;50.390;30.778;2023-05-23T12:14:23;4.20;;;1.95;;
46447;SDS011;32145;50.390;30.778;2023-05-23T12:20:05;4.93;;;1.85;;
46447;SDS011;32145;50.390;30.778;2023-05-23T12:23:02;5.10;;;1.80;;
46447;SDS011;32145;50.390;30.778;2023-05-23T12:25:48;3.10;;;1.60;;
46447;SDS011;32145;50.390;30.778;2023-05-23T12:28:44;4.47;;;1.92;;
46447;SDS011;32145;50.390;30.778;2023-05-23T12:31:34;4.32;;;2.13;;
46447;SDS011;32145;50.390;30.778;2023-05-23T12:34:19;7.75;;;2.17;;
46447;SDS011;32145;50.390;30.778;2023-05-23T12:37:15;14.18;;;5.57;;
46447;SDS011;32145;50.390;30.778;2023-05-23T12:40:08;8.90;;;3.90;;
46447;SDS011;32145;50.390;30.778;2023-05-23T12:43:07;4.47;;;2.00;;
46447;SDS011;32145;50.390;30.778;2023-05-23T12:46:04;7.78;;;3.78;;
46447;SDS011;32145;50.390;30.778;2023-05-23T12:49:00;10.50;;;5.78;;
46447;SDS011;32145;50.390;30.778;2023-05-23T12:51:44;10.13;;;3.33;;
46447;SDS011;32145;50.390;30.778;2023-05-23T12:54:28;3.90;;;2.03;;
46447;SDS011;32145;50.390;30.778;2023-05-23T12:57:24;5.55;;;2.10;;
46447;SDS011;32145;50.390;30.778;2023-05-23T13:00:15;5.63;;;2.17;;
46447;SDS011;32145;50.390;30.778;2023-05-23T13:03:09;7.70;;;2.50;;
46447;SDS011;32145;50.390;30.778;2023-05-23T13:06:05;5.07;;;2.10;;
46447;SDS011;32145;50.390;30.778;2023-05-23T13:08:50;5.95;;;2.20;;
46447;SDS011;32145;50.390;30.778;2023-05-23T13:11:34;6.20;;;2.20;;
46447;SDS011;32145;50.390;30.778;2023-05-23T13:14:17;6.03;;;2.03;;
46447;SDS011;32145;50.390;30.778;2023-05-23T13:17:01;4.72;;;1.80;;
46447;SDS011;32145;50.390;30.778;2023-05-23T13:19:56;6.57;;;2.03;;
46447;SDS011;32145;50.390;30.778;2023-05-23T13:22:41;8.50;;;2.13;;
46447;SDS011;32145;50.390;30.778;2023-05-23T13:25:35;4.80;;;2.08;;
46447;SDS011;32145;50.390;30.778;2023-05-23T13:28:29;4.57;;;2.30;;
46447;SDS011;32145;50.390;30.778;2023-05-23T13:31:13;6.20;;;1.95;;
46447;SDS011;32145;50.390;30.778;2023-05-23T13:34:09;4.07;;;1.85;;
46447;SDS011;32145;50.390;30.778;2023-05-23T13:36:54;4.35;;;1.95;;
46447;SDS011;32145;50.390;30.778;2023-05-23T13:39:49;4.75;;;2.55;;
46447;SDS011;32145;50.390;30.778;2023-05-23T13:42:43;5.68;;;1.73;;
46447;SDS011;32145;50.390;30.778;2023-05-23T13:45:28;6.53;;;2.03;;
46447;SDS011;32145;50.390;30.778;2023-05-23T13:48:12;6.30;;;2.17;;
46447;SDS011;32145;50.390;30.778;2023-05-23T13:50:56;6.15;;;2.20;;
46447;SDS011;32145;50.390;30.778;2023-05-23T13:53:41;3.95;;;2.03;;
46447;SDS011;32145;50.390;30.778;2023-05-23T13:56:26;5.60;;;2.10;;
46447;SDS011;32145;50.390;30.778;2023-05-23T13:59:20;6.18;;;2.30;;
46447;SDS011;32145;50.390;30.778;2023-05-23T14:02:04;6.53;;;2.17;;
46447;SDS011;32145;50.390;30.778;2023-05-23T14:04:49;4.18;;;2.33;;
46447;SDS011;32145;50.390;30.778;2023-05-23T14:07:33;4.95;;;2.15;;
46447;SDS011;32145;50.390;30.778;2023-05-23T14:10:29;3.63;;;2.00;;
46447;SDS011;32145;50.390;30.778;2023-05-23T14:13:27;5.38;;;2.50;;
46447;SDS011;32145;50.390;30.778;2023-05-23T14:16:11;4.57;;;2.10;;
46447;SDS011;32145;50.390;30.778;2023-05-23T14:18:55;6.18;;;2.15;;
46447;SDS011;32145;50.390;30.778;2023-05-23T14:21:51;7.63;;;2.45;;
46447;SDS011;32145;50.390;30.778;2023-05-23T14:24:48;4.93;;;2.28;;
46447;SDS011;32145;50.390;30.778;2023-05-23T14:27:44;3.53;;;1.95;;
46447;SDS011;32145;50.390;30.778;2023-05-23T14:30:29;6.07;;;2.15;;
46447;SDS011;32145;50.390;30.778;2023-05-23T14:33:13;7.30;;;2.00;;
46447;SDS011;32145;50.390;30.778;2023-05-23T14:36:07;5.20;;;2.10;;
46447;SDS011;32145;50.390;30.778;2023-05-23T14:38:52;7.45;;;2.40;;
46447;SDS011;32145;50.390;30.778;2023-05-23T14:41:48;13.68;;;8.48;;
46447;SDS011;32145;50.390;30.778;2023-05-23T14:44:32;18.77;;;7.07;;
46447;SDS011;32145;50.390;30.778;2023-05-23T14:47:17;6.38;;;3.40;;
46447;SDS011;32145;50.390;30.778;2023-05-23T14:50:08;6.57;;;2.60;;
46447;SDS011;32145;50.390;30.778;2023-05-23T14:52:53;9.50;;;5.25;;
46447;SDS011;32145;50.390;30.778;2023-05-23T14:55:37;8.70;;;4.10;;
46447;SDS011;32145;50.390;30.778;2023-05-23T14:58:21;8.10;;;4.20;;
46447;SDS011;32145;50.390;30.778;2023-05-23T15:01:05;6.18;;;3.40;;
46447;SDS011;32145;50.390;30.778;2023-05-23T15:04:01;7.03;;;2.97;;
46447;SDS011;32145;50.390;30.778;2023-05-23T15:06:45;9.50;;;3.50;;
46447;SDS011;32145;50.390;30.778;2023-05-23T15:09:42;6.88;;;2.45;;
46447;SDS011;32145;50.390;30.778;2023-05-23T15:12:26;4.20;;;2.33;;
46447;SDS011;32145;50.390;30.778;2023-05-23T15:15:21;6.75;;;2.30;;
46447;SDS011;32145;50.390;30.778;2023-05-23T15:18:05;5.28;;;2.13;;
46447;SDS011;32145;50.390;30.778;2023-05-23T15:21:03;6.78;;;2.10;;
46447;SDS011;32145;50.390;30.778;2023-05-23T15:23:47;4.93;;;2.30;;
46447;SDS011;32145;50.390;30.778;2023-05-23T15:26:41;6.80;;;2.10;;
46447;SDS011;32145;50.390;30.778;2023-05-23T15:29:25;5.40;;;2.35;;
46447;SDS011;32145;50.390;30.778;2023-05-23T15:32:09;9.02;;;2.40;;
46447;SDS011;32145;50.390;30.778;2023-05-23T15:34:53;5.72;;;2.08;;
46447;SDS011;32145;50.390;30.778;2023-05-23T15:37:49;5.93;;;2.17;;
46447;SDS011;32145;50.390;30.778;2023-05-23T15:40:33;5.82;;;2.33;;
46447;SDS011;32145;50.390;30.778;2023-05-23T15:43:17;4.97;;;2.17;;
46447;SDS011;32145;50.390;30.778;2023-05-23T15:46:01;10.43;;;2.30;;
46447;SDS011;32145;50.390;30.778;2023-05-23T15:48:58;4.35;;;1.92;;
46447;SDS011;32145;50.390;30.778;2023-05-23T15:51:42;4.30;;;2.15;;
46447;SDS011;32145;50.390;30.778;2023-05-23T15:54:28;6.20;;;1.88;;
46447;SDS011;32145;50.390;30.778;2023-05-23T15:57:12;4.80;;;2.35;;
46447;SDS011;32145;50.390;30.778;2023-05-23T15:59:55;4.30;;;2.05;;
46447;SDS011;32145;50.390;30.778;2023-05-23T16:02:40;10.88;;;2.67;;
46447;SDS011;32145;50.390;30.778;2023-05-23T16:05:23;5.85;;;2.47;;
46447;SDS011;32145;50.390;30.778;2023-05-23T16:08:18;4.65;;;2.20;;
46447;SDS011;32145;50.390;30.778;2023-05-23T16:11:15;6.50;;;2.20;;
46447;SDS011;32145;50.390;30.778;2023-05-23T16:14:00;5.60;;;2.00;;
46447;SDS011;32145;50.390;30.778;2023-05-23T16:16:44;5.22;;;2.30;;
46447;SDS011;32145;50.390;30.778;2023-05-23T16:19:40;7.03;;;2.40;;
46447;SDS011;32145;50.390;30.778;2023-05-23T16:22:24;5.38;;;2.20;;
46447;SDS011;32145;50.390;30.778;2023-05-23T16:25:08;5.13;;;2.38;;
46447;SDS011;32145;50.390;30.778;2023-05-23T16:28:06;11.23;;;2.63;;
46447;SDS011;32145;50.390;30.778;2023-05-23T16:30:50;4.72;;;2.22;;
46447;SDS011;32145;50.390;30.778;2023-05-23T16:33:34;4.93;;;2.25;;
46447;SDS011;32145;50.390;30.778;2023-05-23T16:36:31;7.13;;;2.42;;
46447;SDS011;32145;50.390;30.778;2023-05-23T16:39:15;5.15;;;2.50;;
46447;SDS011;32145;50.390;30.778;2023-05-23T16:42:11;5.78;;;2.50;;
46447;SDS011;32145;50.390;30.778;2023-05-23T16:45:03;6.82;;;2.38;;
46447;SDS011;32145;50.390;30.778;2023-05-23T16:47:58;5.18;;;2.40;;
46447;SDS011;32145;50.390;30.778;2023-05-23T16:50:42;5.20;;;2.70;;
46447;SDS011;32145;50.390;30.778;2023-05-23T16:53:36;7.03;;;3.03;;
46447;SDS011;32145;50.390;30.778;2023-05-23T16:56:20;5.53;;;2.75;;
46447;SDS011;32145;50.390;30.778;2023-05-23T16:59:17;6.30;;;2.78;;
46447;SDS011;32145;50.390;30.778;2023-05-23T17:02:02;4.95;;;2.50;;
46447;SDS011;32145;50.390;30.778;2023-05-23T17:04:57;6.22;;;2.60;;
46447;SDS011;32145;50.390;30.778;2023-05-23T17:07:51;4.97;;;2.15;;
46447;SDS011;32145;50.390;30.778;2023-05-23T17:10:35;7.10;;;2.38;;
46447;SDS011;32145;50.390;30.778;2023-05-23T17:13:32;4.88;;;2.25;;
46447;SDS011;32145;50.390;30.778;2023-05-23T17:16:28;5.55;;;2.10;;
46447;SDS011;32145;50.390;30.778;2023-05-23T17:19:26;4.40;;;2.00;;
46447;SDS011;32145;50.390;30.778;2023-05-23T17:22:22;2.80;;;1.90;;
46447;SDS011;32145;50.390;30.778;2023-05-23T17:25:18;6.93;;;2.17;;